Time;durP1;ratioP1;P1;durP2;ratioP2;P2;SDS_P1;SDS_P2;PMS_P1;PMS_P2;Temp;Humidity;BMP_temperature;BMP_pressure;BME280_temperature;BME280_humidity;BME280_pressure;Samples;Min_cycle;Max_cycle;Signal;HPM_P1;HPM_P2
2022/11/02 00:01:35;;;;;;;;;9.00;9.00;;;;;21.69;62.28;101067.21;106445;1293;19347;-84
2022/11/02 00:04:02;;;;;;;;;13.00;12.00;;;;;21.67;62.42;101061.67;106381;1287;18363;-83
2022/11/02 00:06:32;;;;;;;;;8.00;8.00;;;;;21.68;62.31;101065.73;106254;1288;20304;-83
2022/11/02 00:08:59;;;;;;;;;10.00;9.00;;;;;21.66;62.42;101074.43;106382;1294;20903;-83
2022/11/02 00:11:27;;;;;;;;;12.00;11.00;;;;;21.68;62.35;101075.81;106370;1288;18499;-83
2022/11/02 00:13:54;;;;;;;;;;;;;;;21.68;62.36;101075.17;106396;1293;18728;-83
2022/11/02 00:16:21;;;;;;;;;11.00;9.00;;;;;21.67;62.29;101075.83;106331;1286;22919;-83
2022/11/02 00:18:48;;;;;;;;;10.00;9.00;;;;;21.68;62.17;101082.67;106496;1279;18457;-84
2022/11/02 00:21:16;;;;;;;;;9.00;9.00;;;;;21.66;62.31;101076.61;106432;1280;18842;-83
2022/11/02 00:23:43;;;;;;;;;12.50;11.00;;;;;21.68;62.05;101079.57;106259;1285;21706;-83
2022/11/02 00:26:10;;;;;;;;;12.00;12.00;;;;;21.68;62.01;101079.33;106436;1295;22666;-85
2022/11/02 00:28:37;;;;;;;;;12.00;12.00;;;;;21.67;62.17;101081.97;106493;1294;18811;-84
2022/11/02 00:31:05;;;;;;;;;10.00;9.00;;;;;21.67;62.17;101081.45;106385;1294;19446;-84
2022/11/02 00:33:32;;;;;;;;;10.00;10.00;;;;;21.66;62.14;101082.27;106389;1288;20578;-84
2022/11/02 00:35:59;;;;;;;;;9.00;8.00;;;;;21.66;61.98;101083.91;106487;1286;18733;-83
2022/11/02 00:38:27;;;;;;;;;12.00;12.00;;;;;21.66;62.12;101089.92;106354;1271;19340;-84
2022/11/02 00:40:54;;;;;;;;;9.00;9.00;;;;;21.67;62.00;101094.41;106383;1293;18671;-84
2022/11/02 00:43:21;;;;;;;;;12.00;10.00;;;;;21.66;61.94;101089.40;106378;1285;18977;-85
2022/11/02 00:45:48;;;;;;;;;12.00;11.00;;;;;21.67;61.95;101092.77;106435;1294;19229;-84
2022/11/02 00:48:16;;;;;;;;;11.00;10.00;;;;;21.66;62.04;101092.68;106356;1286;19520;-83
2022/11/02 00:50:43;;;;;;;;;13.00;11.00;;;;;21.66;61.88;101090.29;106201;1279;23282;-84
2022/11/02 00:53:10;;;;;;;;;13.00;13.00;;;;;21.67;61.89;101090.42;106383;1278;19510;-84
2022/11/02 00:55:37;;;;;;;;;8.00;8.00;;;;;21.66;61.93;101090.16;106403;1286;24122;-84
2022/11/02 00:58:05;;;;;;;;;11.00;9.50;;;;;21.66;61.86;101091.21;106413;1294;19170;-84
2022/11/02 01:00:32;;;;;;;;;10.00;10.00;;;;;21.66;61.88;101085.77;106391;1288;21876;-84
2022/11/02 01:02:59;;;;;;;;;10.00;8.00;;;;;21.66;61.82;101086.85;106355;1292;19373;-84
2022/11/02 01:05:27;;;;;;;;;9.00;9.00;;;;;21.66;61.78;101089.45;106490;1286;18552;-84
2022/11/02 01:07:54;;;;;;;;;8.00;6.00;;;;;21.65;61.88;101090.02;106328;1286;21221;-83
2022/11/02 01:10:21;;;;;;;;;10.00;9.00;;;;;21.66;61.84;101092.55;106433;1285;18905;-84
2022/11/02 01:12:48;;;;;;;;;12.00;9.00;;;;;21.64;61.82;101093.42;106406;1288;22068;-84
2022/11/02 01:15:16;;;;;;;;;12.50;11.00;;;;;21.64;61.63;101094.74;106430;1292;20984;-83
2022/11/02 01:17:43;;;;;;;;;9.00;8.00;;;;;21.64;61.72;101095.30;106435;1294;18765;-85
2022/11/02 01:20:10;;;;;;;;;13.00;9.00;;;;;21.65;61.78;101093.94;106443;1294;18574;-84
2022/11/02 01:22:38;;;;;;;;;9.50;9.00;;;;;21.64;61.65;101095.27;106441;1296;19557;-85
2022/11/02 01:25:05;;;;;;;;;9.00;8.00;;;;;21.65;61.78;101100.31;106338;1300;18560;-84
2022/11/02 01:27:32;;;;;;;;;8.67;8.33;;;;;21.65;61.67;101100.11;106421;1279;20254;-83
2022/11/02 01:29:59;;;;;;;;;9.50;9.50;;;;;21.64;61.73;101099.40;106380;1276;20934;-83
2022/11/02 01:32:27;;;;;;;;;8.50;8.00;;;;;21.64;61.70;101099.63;106316;1294;19985;-83
2022/11/02 01:34:54;;;;;;;;;;;;;;;21.63;61.66;101104.05;106278;1293;18718;-84
2022/11/02 01:37:21;;;;;;;;;9.00;9.00;;;;;21.64;61.73;101105.29;106441;1293;21227;-84
2022/11/02 01:39:48;;;;;;;;;12.00;9.00;;;;;21.64;61.72;101105.43;106405;1294;18251;-84
2022/11/02 01:42:16;;;;;;;;;9.00;9.00;;;;;21.63;61.63;101106.69;106386;1294;18669;-83
2022/11/02 01:44:44;;;;;;;;;13.50;8.00;;;;;21.63;61.55;101106.79;106527;1278;19612;-83
2022/11/02 01:47:11;;;;;;;;;9.00;8.00;;;;;21.63;61.53;101110.34;106476;1294;19715;-83
2022/11/02 01:49:39;;;;;;;;;;;;;;;21.64;61.59;101109.65;106416;1285;18791;-84
2022/11/02 01:52:07;;;;;;;;;11.00;10.00;;;;;21.64;61.53;101107.09;106473;1294;19271;-83
2022/11/02 01:54:36;;;;;;;;;8.00;8.00;;;;;21.63;61.59;101100.27;106433;1294;18540;-83
2022/11/02 01:57:04;;;;;;;;;9.00;8.50;;;;;21.62;61.50;101100.35;106313;1292;21982;-83
2022/11/02 01:59:31;;;;;;;;;6.00;6.00;;;;;21.62;61.54;101101.10;106433;1294;22130;-83
2022/11/02 02:01:58;;;;;;;;;9.00;9.00;;;;;21.62;61.39;101102.73;106500;1288;18442;-83
2022/11/02 02:04:26;;;;;;;;;9.00;9.00;;;;;21.62;61.55;101101.82;106529;1272;18734;-84
2022/11/02 02:06:53;;;;;;;;;9.00;9.00;;;;;21.63;61.45;101102.46;106445;1294;20856;-83
2022/11/02 02:09:20;;;;;;;;;8.00;6.00;;;;;21.62;61.52;101102.57;106460;1287;20338;-83
2022/11/02 02:11:47;;;;;;;;;9.00;8.00;;;;;21.62;61.31;101105.46;106848;1294;18515;-84
2022/11/02 02:14:15;;;;;;;;;8.50;8.50;;;;;21.62;61.34;101104.91;106887;1294;19307;-84
2022/11/02 02:16:45;;;;;;;;;8.00;6.00;;;;;21.61;61.34;101099.73;106907;1288;18238;-83
2022/11/02 02:19:12;;;;;;;;;10.00;8.00;;;;;21.62;61.30;101102.78;106794;1293;18683;-84
2022/11/02 02:21:39;;;;;;;;;9.00;8.00;;;;;21.63;61.21;101107.61;106574;1285;22460;-84
2022/11/02 02:24:06;;;;;;;;;9.00;8.00;;;;;21.62;61.36;101106.56;106491;1278;18454;-84
2022/11/02 02:26:34;;;;;;;;;9.00;6.00;;;;;21.62;61.38;101109.08;106379;1285;20084;-84
2022/11/02 02:29:01;;;;;;;;;9.00;9.00;;;;;21.62;61.34;101110.20;106537;1294;19184;-84
2022/11/02 02:31:28;;;;;;;;;6.00;6.00;;;;;21.61;61.25;101109.19;106401;1285;20635;-84
2022/11/02 02:33:56;;;;;;;;;9.00;9.00;;;;;21.62;61.35;101110.20;106399;1294;20063;-83
2022/11/02 02:36:23;;;;;;;;;7.00;6.00;;;;;21.62;61.33;101111.16;106348;1297;19618;-84
2022/11/02 02:38:50;;;;;;;;;8.00;8.00;;;;;21.61;61.11;101107.72;106395;1286;20884;-83
2022/11/02 02:41:17;;;;;;;;;7.00;6.00;;;;;21.61;61.20;101114.88;106405;1293;18489;-83
2022/11/02 02:43:45;;;;;;;;;10.00;9.00;;;;;21.60;61.32;101122.17;106389;1291;19474;-84
2022/11/02 02:46:12;;;;;;;;;11.00;9.00;;;;;21.60;61.22;101125.15;106379;1288;18478;-83
2022/11/02 02:48:39;;;;;;;;;10.00;6.00;;;;;21.61;61.21;101130.16;106437;1286;20312;-83
2022/11/02 02:51:06;;;;;;;;;9.00;8.00;;;;;21.60;61.11;101127.30;106420;1294;22024;-83
2022/11/02 02:53:34;;;;;;;;;9.00;8.50;;;;;21.60;61.24;101135.30;106414;1294;18466;-83
2022/11/02 02:56:01;;;;;;;;;11.00;8.50;;;;;21.60;61.27;101128.90;106440;1294;18589;-83
2022/11/02 02:58:28;;;;;;;;;9.00;9.00;;;;;21.60;61.29;101130.74;106334;1294;19463;-84
2022/11/02 03:00:57;;;;;;;;;;;;;;;21.60;61.15;101131.30;106354;1298;18581;-84
2022/11/02 03:03:24;;;;;;;;;8.00;8.00;;;;;21.60;61.13;101136.61;106432;1294;18266;-83
2022/11/02 03:05:52;;;;;;;;;6.00;6.00;;;;;21.59;61.10;101137.06;106351;1285;19257;-83
2022/11/02 03:08:20;;;;;;;;;8.00;8.00;;;;;21.59;61.15;101140.15;106319;1293;18148;-83
2022/11/02 03:10:47;;;;;;;;;10.00;9.00;;;;;21.60;61.16;101144.42;106440;1288;21159;-83
2022/11/02 03:13:15;;;;;;;;;6.00;6.00;;;;;21.58;61.15;101140.77;106343;1294;19352;-83
2022/11/02 03:15:43;;;;;;;;;9.00;8.50;;;;;21.59;60.98;101144.73;106333;1278;21661;-86
2022/11/02 03:18:10;;;;;;;;;9.00;6.00;;;;;21.58;61.05;101148.02;106386;1285;18787;-83
2022/11/02 03:20:37;;;;;;;;;6.00;6.00;;;;;21.59;61.07;101148.86;106378;1286;19613;-83
2022/11/02 03:23:04;;;;;;;;;10.00;9.00;;;;;21.59;61.07;101148.76;106561;1294;18421;-84
2022/11/02 03:25:32;;;;;;;;;6.00;5.00;;;;;21.59;61.18;101146.18;106312;1294;20091;-84
2022/11/02 03:27:59;;;;;;;;;9.00;9.00;;;;;21.59;61.14;101147.83;106364;1293;19362;-83
2022/11/02 03:30:27;;;;;;;;;10.00;9.00;;;;;21.59;61.06;101142.00;106269;1294;20564;-84
2022/11/02 03:32:54;;;;;;;;;8.00;8.00;;;;;21.58;60.97;101142.67;106351;1294;18720;-83
2022/11/02 03:35:21;;;;;;;;;9.00;9.00;;;;;21.57;60.91;101138.14;106323;1294;19272;-83
2022/11/02 03:37:49;;;;;;;;;5.50;5.50;;;;;21.57;60.99;101139.09;106446;1294;18824;-84
2022/11/02 03:40:16;;;;;;;;;6.00;5.50;;;;;21.57;60.96;101136.54;106478;1285;20184;-83
2022/11/02 03:42:43;;;;;;;;;12.00;9.00;;;;;21.58;61.05;101138.85;106423;1294;19142;-84
2022/11/02 03:45:11;;;;;;;;;9.00;8.00;;;;;21.57;60.91;101136.16;106422;1285;18410;-83
2022/11/02 03:47:38;;;;;;;;;6.00;6.00;;;;;21.57;61.09;101136.91;106416;1298;18512;-83
2022/11/02 03:50:05;;;;;;;;;8.00;6.00;;;;;21.57;60.92;101133.09;106379;1293;22267;-84
2022/11/02 03:52:33;;;;;;;;;9.00;8.00;;;;;21.57;61.01;101135.48;106426;1292;18554;-83
2022/11/02 03:55:00;;;;;;;;;8.50;6.00;;;;;21.56;60.88;101130.98;106513;1294;18801;-83
2022/11/02 03:57:27;;;;;;;;;9.50;9.00;;;;;21.57;60.90;101134.36;106419;1282;19469;-83
2022/11/02 03:59:54;;;;;;;;;8.50;8.00;;;;;21.56;61.04;101136.80;106442;1294;18378;-83
2022/11/02 04:02:22;;;;;;;;;10.00;9.00;;;;;21.57;61.03;101135.64;106461;1278;18707;-83
2022/11/02 04:04:49;;;;;;;;;9.00;9.00;;;;;21.57;60.95;101134.05;106424;1294;19254;-84
2022/11/02 04:07:16;;;;;;;;;9.00;8.00;;;;;21.56;60.70;101132.65;106381;1294;21771;-84
2022/11/02 04:09:43;;;;;;;;;8.00;6.00;;;;;21.57;60.81;101141.52;106413;1294;18686;-84
2022/11/02 04:14:52;;;;;;;;;12.00;10.00;;;;;21.56;60.71;101146.29;105937;1282;18936;-83
2022/11/02 04:20:04;;;;;;;;;9.00;8.00;;;;;21.56;60.86;101155.26;106012;1300;19627;-83
2022/11/02 04:25:18;;;;;;;;;9.00;8.00;;;;;21.56;60.86;101151.06;105943;1284;18843;-83
2022/11/02 04:27:45;;;;;;;;;;;;;;;21.56;60.87;101155.59;105993;1290;21210;-83
2022/11/02 04:30:13;;;;;;;;;5.00;5.00;;;;;21.56;60.81;101148.48;105958;1284;19296;-84
2022/11/02 04:35:25;;;;;;;;;6.00;6.00;;;;;21.56;60.67;101154.84;106010;1292;19301;-83
2022/11/02 04:40:37;;;;;;;;;6.00;6.00;;;;;21.57;60.76;101161.70;105943;1284;20293;-83
2022/11/02 04:43:04;;;;;;;;;8.00;8.00;;;;;21.56;60.78;101157.40;105939;1299;19314;-83
2022/11/02 04:45:32;;;;;;;;;6.00;6.00;;;;;21.56;60.67;101154.10;105948;1284;21338;-83
2022/11/02 04:47:59;;;;;;;;;8.00;8.00;;;;;21.55;60.70;101146.60;106033;1298;18502;-83
2022/11/02 04:50:26;;;;;;;;;6.00;6.00;;;;;21.54;60.81;101146.13;105967;1297;21102;-83
2022/11/02 04:52:54;;;;;;;;;6.00;6.00;;;;;21.55;60.95;101148.65;106180;1293;18563;-84
2022/11/02 04:55:21;;;;;;;;;6.00;6.00;;;;;21.54;60.72;101145.27;106444;1294;18516;-83
2022/11/02 04:57:48;;;;;;;;;;;;;;;21.55;60.82;101149.95;106414;1294;20630;-84
2022/11/02 05:00:16;;;;;;;;;8.00;8.00;;;;;21.55;60.66;101147.73;106380;1279;18832;-83
2022/11/02 05:02:43;;;;;;;;;6.00;6.00;;;;;21.55;60.64;101149.33;106479;1285;18552;-83
2022/11/02 05:05:11;;;;;;;;;5.00;4.00;;;;;21.55;60.72;101151.92;106421;1293;19427;-83
2022/11/02 05:07:39;;;;;;;;;10.00;8.00;;;;;21.53;60.83;101145.52;106486;1294;18368;-83
2022/11/02 05:10:06;;;;;;;;;6.00;5.00;;;;;21.54;60.90;101149.77;106439;1293;18593;-84
2022/11/02 05:12:33;;;;;;;;;9.00;8.00;;;;;21.54;60.90;101159.84;106485;1282;19281;-83
2022/11/02 05:15:01;;;;;;;;;4.00;4.00;;;;;21.54;60.84;101161.85;106426;1291;18353;-83
2022/11/02 05:17:28;;;;;;;;;6.00;6.00;;;;;21.55;60.90;101162.77;106498;1285;20352;-83
2022/11/02 05:19:55;;;;;;;;;9.00;8.00;;;;;21.54;60.77;101162.39;106391;1293;19293;-83
2022/11/02 05:22:23;;;;;;;;;5.00;4.00;;;;;21.54;60.74;101160.96;106399;1279;23909;-83
2022/11/02 05:24:50;;;;;;;;;5.00;5.00;;;;;21.54;60.85;101159.59;106441;1276;18390;-84
2022/11/02 05:27:18;;;;;;;;;5.00;5.00;;;;;21.54;60.69;101160.30;106458;1278;19342;-83
2022/11/02 05:29:45;;;;;;;;;10.00;9.50;;;;;21.55;60.85;101159.93;106484;1279;18606;-83
2022/11/02 05:32:12;;;;;;;;;6.00;6.00;;;;;21.55;60.74;101162.08;106552;1285;18678;-84
2022/11/02 05:34:39;;;;;;;;;8.00;6.00;;;;;21.54;60.76;101167.30;106546;1269;20872;-83
2022/11/02 05:37:07;;;;;;;;;6.00;6.00;;;;;21.53;60.72;101168.64;106492;1269;18381;-82
2022/11/02 05:39:36;;;;;;;;;7.00;7.00;;;;;21.53;60.95;101165.94;106479;1278;18492;-83
2022/11/02 05:42:03;;;;;;;;;9.00;8.00;;;;;21.54;60.79;101173.30;106371;1278;22849;-83
2022/11/02 05:44:31;;;;;;;;;8.50;8.00;;;;;21.53;60.69;101177.02;106539;1282;20947;-82
2022/11/02 05:46:58;;;;;;;;;10.00;10.00;;;;;21.53;60.63;101173.74;106422;1285;21093;-83
2022/11/02 05:49:25;;;;;;;;;8.50;7.00;;;;;21.53;60.69;101176.48;106389;1294;19288;-81
2022/11/02 05:51:52;;;;;;;;;6.00;5.50;;;;;21.54;60.74;101178.04;106497;1286;20191;-81
2022/11/02 05:54:20;;;;;;;;;8.00;6.00;;;;;21.54;60.81;101180.49;106460;1279;19168;-82
2022/11/02 05:56:47;;;;;;;;;8.00;8.00;;;;;21.56;60.89;101182.37;106390;1272;24030;-82
2022/11/02 05:59:14;;;;;;;;;16.50;15.00;;;;;21.59;61.23;101185.13;106522;1285;18280;-83
2022/11/02 06:01:41;;;;;;;;;52.00;42.00;;;;;21.61;61.33;101184.00;106403;1294;18542;-82
2022/11/02 06:04:09;;;;;;;;;47.00;42.50;;;;;21.63;61.73;101188.45;106435;1294;19689;-82
2022/11/02 06:06:36;;;;;;;;;;;;;;;21.64;61.69;101189.51;106759;1294;18490;-81
2022/11/02 06:09:03;;;;;;;;;42.00;39.00;;;;;21.64;61.77;101190.61;106864;1293;20122;-82
2022/11/02 06:11:30;;;;;;;;;37.00;36.00;;;;;21.64;62.10;101194.59;106535;1294;22145;-84
2022/11/02 06:13:58;;;;;;;;;33.50;26.00;;;;;21.64;62.38;101198.23;106458;1279;23267;-80
2022/11/02 06:16:25;;;;;;;;;28.00;26.00;;;;;21.65;62.61;101198.97;106364;1294;18590;-81
2022/11/02 06:18:52;;;;;;;;;25.50;25.00;;;;;21.67;62.74;101203.46;106362;1294;21765;-87
2022/11/02 06:21:20;;;;;;;;;20.00;20.00;;;;;21.67;62.89;101203.84;106404;1285;18947;-82
2022/11/02 06:23:47;;;;;;;;;24.00;21.00;;;;;21.68;63.08;101207.59;106491;1278;18926;-82
2022/11/02 06:26:14;;;;;;;;;19.00;16.00;;;;;21.65;63.29;101201.36;106561;1276;19572;-82
2022/11/02 06:28:41;;;;;;;;;17.00;16.00;;;;;21.64;63.31;101201.65;106393;1279;22013;-83
2022/11/02 06:31:09;;;;;;;;;19.00;18.00;;;;;21.63;63.25;101206.45;106406;1292;18611;-84
2022/11/02 06:33:36;;;;;;;;;16.00;16.00;;;;;21.62;63.21;101199.55;106433;1294;19431;-82
2022/11/02 06:36:04;;;;;;;;;12.00;12.00;;;;;21.61;63.10;101201.45;106443;1285;18995;-82
2022/11/02 06:38:31;;;;;;;;;13.00;12.00;;;;;21.63;63.18;101197.60;106451;1285;24424;-82
2022/11/02 06:40:59;;;;;;;;;11.50;10.00;;;;;21.64;63.25;101198.98;106465;1286;19325;-84
2022/11/02 06:43:26;;;;;;;;;12.00;12.00;;;;;21.63;63.55;101186.52;106351;1294;18588;-83
2022/11/02 06:45:53;;;;;;;;;13.00;10.00;;;;;21.63;63.59;101191.73;106418;1285;19875;-84
2022/11/02 06:48:21;;;;;;;;;10.00;9.00;;;;;21.65;63.35;101190.03;106432;1294;19479;-83
2022/11/02 06:50:48;;;;;;;;;8.50;8.50;;;;;21.68;63.21;101190.34;106344;1286;20085;-82
2022/11/02 06:53:15;;;;;;;;;12.00;10.00;;;;;21.71;63.32;101198.18;106448;1285;21465;-82
2022/11/02 06:55:42;;;;;;;;;8.00;8.00;;;;;21.69;63.46;101191.92;106335;1279;23630;-82
2022/11/02 06:58:10;;;;;;;;;12.00;10.00;;;;;21.67;63.40;101192.98;106280;1294;18484;-82
2022/11/02 07:00:37;;;;;;;;;8.00;8.00;;;;;21.64;63.36;101193.40;106362;1294;19007;-82
2022/11/02 07:03:04;;;;;;;;;9.00;9.00;;;;;21.62;63.31;101192.99;106306;1285;22247;-82
2022/11/02 07:05:32;;;;;;;;;9.00;9.00;;;;;21.62;63.24;101190.61;106432;1278;21539;-82
2022/11/02 07:07:59;;;;;;;;;8.50;8.50;;;;;21.60;63.13;101187.89;106380;1294;18708;-82
2022/11/02 07:10:26;;;;;;;;;7.00;7.00;;;;;21.59;63.16;101185.98;106309;1300;22715;-82
2022/11/02 07:12:54;;;;;;;;;8.50;8.00;;;;;21.59;63.10;101191.45;106480;1285;18442;-82
2022/11/02 07:15:21;;;;;;;;;8.00;8.00;;;;;21.58;62.90;101186.96;106519;1294;26806;-82
2022/11/02 07:17:48;;;;;;;;;9.00;9.00;;;;;21.59;62.88;101184.39;106349;1300;21620;-82
2022/11/02 07:20:15;;;;;;;;;8.00;6.00;;;;;21.59;62.92;101188.34;106368;1278;18531;-82
2022/11/02 07:22:43;;;;;;;;;8.00;8.00;;;;;21.59;62.85;101194.20;106349;1285;18514;-82
2022/11/02 07:25:10;;;;;;;;;8.00;7.00;;;;;21.58;62.90;101198.86;106470;1294;19338;-82
2022/11/02 07:27:37;;;;;;;;;8.00;6.00;;;;;21.57;62.80;101194.16;106435;1278;22192;-82
2022/11/02 07:30:05;;;;;;;;;8.00;7.00;;;;;21.58;62.66;101197.05;106446;1279;28716;-82
2022/11/02 07:32:32;;;;;;;;;8.00;6.00;;;;;21.57;62.63;101197.09;106495;1292;19730;-81
2022/11/02 07:34:59;;;;;;;;;6.00;6.00;;;;;21.58;62.65;101197.69;106337;1285;18414;-82
2022/11/02 07:37:26;;;;;;;;;10.00;8.50;;;;;21.59;62.61;101200.71;106356;1294;18668;-82
2022/11/02 07:39:54;;;;;;;;;9.00;8.00;;;;;21.60;62.69;101198.77;106400;1294;20968;-82
2022/11/02 07:42:21;;;;;;;;;8.50;8.00;;;;;21.60;62.55;101194.06;106400;1285;22668;-82
2022/11/02 07:44:48;;;;;;;;;;;;;;;21.61;62.66;101194.13;106384;1278;20237;-81
2022/11/02 07:47:16;;;;;;;;;6.00;5.00;;;;;21.60;62.73;101193.35;106342;1294;20903;-80
2022/11/02 07:49:43;;;;;;;;;6.00;6.00;;;;;21.62;62.76;101191.91;106301;1285;19121;-79
2022/11/02 07:52:10;;;;;;;;;5.00;5.00;;;;;21.62;62.70;101192.96;106376;1293;18395;-81
2022/11/02 07:54:37;;;;;;;;;9.00;5.00;;;;;21.63;62.77;101197.26;106448;1288;19603;-83
2022/11/02 07:57:05;;;;;;;;;9.00;9.00;;;;;21.63;62.93;101196.34;106455;1276;18675;-82
2022/11/02 07:59:32;;;;;;;;;7.00;6.00;;;;;21.66;62.83;101195.76;106322;1271;21693;-81
2022/11/02 08:01:59;;;;;;;;;8.00;7.00;;;;;21.71;63.18;101197.05;106271;1286;163720;-82
2022/11/02 08:04:26;;;;;;;;;6.00;6.00;;;;;21.69;63.25;101197.28;106417;1285;18411;-81
2022/11/02 08:06:54;;;;;;;;;5.00;5.00;;;;;21.70;63.25;101198.08;106367;1279;21082;-82
2022/11/02 08:09:22;;;;;;;;;4.50;4.50;;;;;21.70;63.53;101198.80;106406;1278;22289;-81
2022/11/02 08:12:08;;;;;;;;;5.00;4.00;;;;;21.67;63.85;101200.05;106344;1278;18300;-82
2022/11/02 08:14:36;;;;;;;;;3.00;3.00;;;;;21.65;64.08;101200.61;106341;1278;20243;-81
2022/11/02 08:17:04;;;;;;;;;4.00;3.00;;;;;21.65;63.99;101200.23;106368;1288;19448;-82
2022/11/02 08:19:31;;;;;;;;;4.00;4.00;;;;;21.66;63.62;101202.38;106423;1280;23021;-82
2022/11/02 08:21:59;;;;;;;;;5.00;5.00;;;;;21.66;63.82;101200.16;106409;1295;18522;-85
2022/11/02 08:24:26;;;;;;;;;5.00;5.00;;;;;21.67;64.00;101198.29;106356;1286;20751;-83
2022/11/02 08:26:53;;;;;;;;;5.00;4.00;;;;;21.66;64.01;101195.84;106430;1278;18397;-84
2022/11/02 08:29:21;;;;;;;;;6.00;5.00;;;;;21.64;63.81;101193.44;106471;1278;21946;-82
2022/11/02 08:31:48;;;;;;;;;4.00;4.00;;;;;21.65;63.77;101196.27;106459;1294;19275;-82
2022/11/02 08:34:15;;;;;;;;;5.00;4.00;;;;;21.66;63.79;101195.09;106466;1279;19559;-81
2022/11/02 08:36:43;;;;;;;;;4.00;4.00;;;;;21.65;63.62;101195.36;106371;1278;18554;-82
2022/11/02 08:39:10;;;;;;;;;8.00;5.00;;;;;21.66;63.69;101194.95;106485;1278;19356;-83
2022/11/02 08:41:37;;;;;;;;;4.00;4.00;;;;;21.66;63.57;101196.00;106427;1294;18497;-83
2022/11/02 08:44:05;;;;;;;;;5.00;5.00;;;;;21.66;63.65;101196.86;106407;1275;20068;-82
2022/11/02 08:46:32;;;;;;;;;5.50;5.00;;;;;21.68;63.56;101199.33;106409;1285;19544;-84
2022/11/02 08:48:59;;;;;;;;;4.50;4.00;;;;;21.67;63.52;101198.29;106384;1278;18402;-82
2022/11/02 08:51:27;;;;;;;;;4.00;4.00;;;;;21.66;63.74;101199.39;106473;1285;19144;-84
2022/11/02 08:53:54;;;;;;;;;4.00;4.00;;;;;21.69;63.91;101203.45;106486;1285;19307;-83
2022/11/02 08:56:21;;;;;;;;;4.00;4.00;;;;;21.69;64.03;101201.57;106465;1276;18378;-83
2022/11/02 08:58:49;;;;;;;;;4.00;4.00;;;;;21.69;64.10;101202.77;106443;1278;24153;-82
2022/11/02 09:01:16;;;;;;;;;5.00;5.00;;;;;21.68;64.18;101197.73;106325;1294;19247;-83
2022/11/02 09:03:43;;;;;;;;;5.00;5.00;;;;;21.69;64.07;101201.59;106438;1300;26773;-84
2022/11/02 09:06:11;;;;;;;;;4.00;4.00;;;;;21.69;64.10;101203.39;106433;1272;18710;-83
2022/11/02 09:08:38;;;;;;;;;4.50;4.00;;;;;21.68;64.11;101204.86;106435;1295;19308;-83
2022/11/02 09:11:05;;;;;;;;;4.50;4.00;;;;;21.68;64.21;101202.51;106303;1293;18598;-82
2022/11/02 09:13:33;;;;;;;;;5.33;4.67;;;;;21.70;64.14;101200.28;106400;1294;18723;-82
2022/11/02 09:16:01;;;;;;;;;4.00;4.00;;;;;21.68;64.16;101197.94;106355;1286;21866;-82
2022/11/02 09:18:28;;;;;;;;;4.00;4.00;;;;;21.67;63.86;101202.59;106313;1300;18514;-82
2022/11/02 09:20:56;;;;;;;;;2.00;2.00;;;;;21.66;63.95;101202.89;106345;1294;22908;-82
2022/11/02 09:23:23;;;;;;;;;4.00;2.00;;;;;21.66;63.98;101202.10;106530;1286;21659;-83
2022/11/02 09:25:50;;;;;;;;;5.00;5.00;;;;;21.67;63.92;101203.74;106435;1286;20066;-82
2022/11/02 09:28:18;;;;;;;;;3.00;2.00;;;;;21.66;64.04;101204.12;106432;1294;18528;-82
2022/11/02 09:30:45;;;;;;;;;4.00;2.00;;;;;21.67;63.78;101203.51;106468;1286;21463;-81
2022/11/02 09:33:13;;;;;;;;;2.00;2.00;;;;;21.68;63.83;101208.89;106439;1285;20043;-82
2022/11/02 09:35:40;;;;;;;;;2.00;2.00;;;;;21.66;63.86;101200.73;106439;1285;21492;-82
2022/11/02 09:38:08;;;;;;;;;2.00;2.00;;;;;21.68;63.64;101199.23;106314;1287;20558;-82
2022/11/02 09:40:35;;;;;;;;;2.67;2.67;;;;;21.67;63.72;101196.55;106461;1294;19407;-82
2022/11/02 09:43:02;;;;;;;;;2.00;2.00;;;;;21.65;63.75;101193.34;106451;1285;18494;-82
2022/11/02 09:45:30;;;;;;;;;2.00;2.00;;;;;21.65;63.71;101187.52;106389;1279;19241;-82
2022/11/02 09:47:57;;;;;;;;;3.50;3.50;;;;;21.65;63.54;101187.95;106442;1285;19738;-82
2022/11/02 09:50:24;;;;;;;;;4.00;4.00;;;;;21.65;63.60;101191.16;106463;1286;22293;-82
2022/11/02 09:52:52;;;;;;;;;4.00;4.00;;;;;21.66;63.38;101195.26;106437;1276;19152;-82
2022/11/02 09:55:19;;;;;;;;;2.00;2.00;;;;;21.66;63.33;101195.46;106374;1278;19965;-84
2022/11/02 09:57:46;;;;;;;;;3.00;3.00;;;;;21.65;63.37;101202.25;106495;1279;20448;-83
2022/11/02 10:00:14;;;;;;;;;4.00;4.00;;;;;21.66;63.40;101206.67;106546;1272;21636;-83
2022/11/02 10:02:41;;;;;;;;;2.00;2.00;;;;;21.66;63.41;101194.50;106568;1294;18428;-82
2022/11/02 10:05:09;;;;;;;;;2.00;2.00;;;;;21.66;63.40;101196.52;106255;1285;18734;-79
2022/11/02 10:07:36;;;;;;;;;6.00;6.00;;;;;21.67;63.41;101195.31;106350;1278;19300;-79
2022/11/02 10:10:03;;;;;;;;;9.50;8.50;;;;;21.67;63.18;101190.27;106437;1285;18448;-80
2022/11/02 10:12:31;;;;;;;;;9.00;9.00;;;;;21.61;62.52;101190.52;106350;1286;21904;-80
2022/11/02 10:14:58;;;;;;;;;11.33;9.67;;;;;21.56;62.16;101186.98;106350;1285;20252;-79
2022/11/02 10:17:25;;;;;;;;;17.00;14.00;;;;;21.56;61.72;101183.63;106422;1286;18330;-78
2022/11/02 10:19:53;;;;;;;;;16.00;15.00;;;;;21.54;61.03;101177.46;106394;1278;18606;-80
2022/11/02 10:22:21;;;;;;;;;17.00;14.00;;;;;21.52;60.35;101177.91;106430;1294;20758;-79
2022/11/02 10:24:48;;;;;;;;;14.00;13.00;;;;;21.51;60.09;101180.12;106384;1293;18888;-80
2022/11/02 10:27:15;;;;;;;;;18.00;16.00;;;;;21.48;59.42;101181.92;106566;1278;19011;-81
2022/11/02 10:29:43;;;;;;;;;18.00;17.00;;;;;21.47;58.89;101179.20;106261;1294;21588;-82
2022/11/02 10:32:10;;;;;;;;;14.00;14.00;;;;;21.47;58.57;101180.47;106239;1291;23076;-81
2022/11/02 10:34:37;;;;;;;;;27.00;21.00;;;;;21.42;57.91;101176.02;106401;1279;24681;-79
2022/11/02 10:37:05;;;;;;;;;18.00;18.00;;;;;21.41;57.59;101181.73;106464;1272;22720;-79
2022/11/02 10:39:32;;;;;;;;;16.00;14.00;;;;;21.36;57.44;101186.52;106524;1285;18876;-79
2022/11/02 10:41:59;;;;;;;;;18.00;16.00;;;;;21.33;57.11;101184.04;106365;1294;19036;-79
2022/11/02 10:44:27;;;;;;;;;19.00;17.50;;;;;21.32;56.86;101179.06;106383;1289;19272;-79
2022/11/02 10:46:54;;;;;;;;;20.50;18.50;;;;;21.28;56.39;101177.64;106393;1287;19999;-79
2022/11/02 10:49:21;;;;;;;;;25.00;22.00;;;;;21.28;56.41;101177.78;106369;1286;20665;-79
2022/11/02 10:51:49;;;;;;;;;19.00;17.00;;;;;21.27;56.23;101175.90;106481;1294;19287;-79
2022/11/02 10:54:16;;;;;;;;;20.00;18.00;;;;;21.27;55.80;101179.02;106526;1278;18482;-79
2022/11/02 10:56:45;;;;;;;;;22.00;21.00;;;;;21.26;55.83;101181.23;106515;1289;20032;-79
2022/11/02 10:59:13;;;;;;;;;17.00;17.00;;;;;21.24;55.57;101178.93;106373;1294;19308;-80
2022/11/02 11:01:40;;;;;;;;;19.67;19.00;;;;;21.23;55.52;101177.42;106393;1293;19949;-81
2022/11/02 11:04:09;;;;;;;;;;;;;;;21.22;55.66;101178.27;106473;1278;23177;-81
2022/11/02 11:06:37;;;;;;;;;17.50;16.50;;;;;21.21;55.65;101188.95;106443;1285;19723;-81
2022/11/02 11:09:04;;;;;;;;;18.00;17.00;;;;;21.20;55.45;101190.84;106361;1279;18480;-81
2022/11/02 11:11:32;;;;;;;;;16.00;16.00;;;;;21.19;55.34;101185.57;106334;1294;18589;-81
2022/11/02 11:13:59;;;;;;;;;23.00;20.00;;;;;21.21;55.45;101184.73;106364;1294;19436;-81
2022/11/02 11:16:26;;;;;;;;;20.00;18.00;;;;;21.20;55.59;101183.96;106372;1285;18517;-81
2022/11/02 11:18:54;;;;;;;;;23.00;19.50;;;;;21.18;55.47;101178.89;106337;1285;18623;-81
2022/11/02 11:21:21;;;;;;;;;24.00;24.00;;;;;21.19;55.50;101175.59;106303;1286;19261;-81
2022/11/02 11:23:48;;;;;;;;;20.00;18.00;;;;;21.18;55.45;101174.19;106335;1285;18476;-81
2022/11/02 11:26:16;;;;;;;;;20.00;20.00;;;;;21.18;55.55;101171.64;106382;1293;18598;-81
2022/11/02 11:28:43;;;;;;;;;17.00;16.00;;;;;21.19;55.40;101185.88;106436;1276;19446;-81